Time;durP1;ratioP1;P1;durP2;ratioP2;P2;SDS_P1;SDS_P2;PMS_P1;PMS_P2;Temp;Humidity;BMP_temperature;BMP_pressure;BME280_temperature;BME280_humidity;BME280_pressure;Samples;Min_cycle;Max_cycle;Signal;HPM_P1;HPM_P2
2024/03/19 00:02:37;;;;;;;;;19.00;15.00;;;;;7.70;100.00;99045.78;6144218;28;96495;-57
2024/03/19 00:05:40;;;;;;;;;16.00;13.25;;;;;7.63;100.00;99028.81;6142238;28;96331;-57
2024/03/19 00:08:42;;;;;;;;;17.25;17.00;;;;;7.75;100.00;99046.03;6146965;28;96402;-57
2024/03/19 00:11:44;;;;;;;;;15.00;14.00;;;;;7.69;100.00;99044.13;6141075;28;96443;-57
2024/03/19 00:14:48;;;;;;;;;17.40;16.80;;;;;7.71;100.00;99040.25;6134089;28;97043;-57
2024/03/19 00:17:52;;;;;;;;;15.00;14.00;;;;;7.63;100.00;99048.44;6126933;28;96913;-57
2024/03/19 00:20:54;;;;;;;;;17.20;15.80;;;;;7.59;100.00;99030.25;6123917;28;96352;-53
2024/03/19 00:23:56;;;;;;;;;19.40;18.00;;;;;7.59;100.00;99041.81;6150054;28;96688;-53
2024/03/19 00:26:58;;;;;;;;;21.40;18.40;;;;;7.65;100.00;99040.19;6134365;28;96773;-52
2024/03/19 00:30:02;;;;;;;;;18.20;17.00;;;;;7.66;100.00;99036.50;6134579;28;97055;-53
2024/03/19 00:33:06;;;;;;;;;18.80;17.80;;;;;7.59;100.00;99033.75;6136151;28;96645;-52
2024/03/19 00:36:09;;;;;;;;;21.00;19.75;;;;;7.66;100.00;99041.84;6154128;28;97505;-53
2024/03/19 00:39:11;;;;;;;;;20.00;19.00;;;;;7.60;100.00;99027.38;6154401;28;96955;-53
2024/03/19 00:42:13;;;;;;;;;20.00;18.00;;;;;7.70;100.00;99032.38;6127382;28;96343;-55
2024/03/19 00:45:17;;;;;;;;;19.00;18.00;;;;;7.75;100.00;99032.59;6131548;28;96400;-53
2024/03/19 00:48:19;;;;;;;;;23.25;21.00;;;;;7.72;100.00;99035.69;6145348;28;96649;-52
2024/03/19 00:51:21;;;;;;;;;19.80;18.60;;;;;7.75;100.00;99035.28;6151150;28;96963;-53
2024/03/19 00:54:23;;;;;;;;;18.60;17.80;;;;;7.61;100.00;99029.03;6135552;28;96302;-53
2024/03/19 00:57:26;;;;;;;;;20.00;19.00;;;;;7.78;100.00;99040.25;6134908;28;96384;-53
2024/03/19 01:00:29;;;;;;;;;20.00;19.00;;;;;7.77;100.00;99038.63;6134223;28;96349;-52
2024/03/19 01:03:33;;;;;;;;;18.60;17.20;;;;;7.77;100.00;99030.56;6118874;28;97729;-53
2024/03/19 01:06:36;;;;;;;;;20.00;20.00;;;;;7.75;100.00;99040.66;6118371;28;96361;-52
2024/03/19 01:09:39;;;;;;;;;19.40;18.00;;;;;7.72;100.00;99033.03;6134919;28;96434;-52
2024/03/19 01:12:42;;;;;;;;;19.40;17.40;;;;;7.69;100.00;99036.91;6142812;28;96926;-54
2024/03/19 01:15:45;;;;;;;;;20.75;19.00;;;;;7.71;100.00;99036.72;6119108;28;96284;-52
2024/03/19 01:18:47;;;;;;;;;22.33;21.00;;;;;7.72;100.00;99036.50;6117861;28;97214;-52
2024/03/19 01:21:49;;;;;;;;;19.60;17.60;;;;;7.74;100.00;99036.31;6118266;28;99043;-52
2024/03/19 01:24:51;;;;;;;;;21.60;19.60;;;;;7.73;100.00;99040.84;6146165;28;96374;-52
2024/03/19 01:27:54;;;;;;;;;18.00;15.50;;;;;7.67;100.00;99044.31;6146291;28;96283;-52
2024/03/19 01:30:57;;;;;;;;;19.60;17.00;;;;;7.65;100.00;99032.16;6133145;28;96383;-56
2024/03/19 01:33:59;;;;;;;;;19.50;17.00;;;;;7.71;100.00;99042.91;6124600;28;97506;-56
2024/03/19 01:37:02;;;;;;;;;18.00;17.00;;;;;7.71;100.00;99040.25;6126563;28;97118;-56
2024/03/19 01:40:05;;;;;;;;;17.00;15.60;;;;;7.62;100.00;99029.88;6136740;28;96326;-56
2024/03/19 01:43:12;;;;;;;;;21.00;17.60;;;;;7.67;100.00;99038.97;6127023;28;96356;-55
2024/03/19 01:46:21;;;;;;;;;20.00;17.50;;;;;7.70;100.00;99032.38;6147246;28;96322;-56
2024/03/19 01:49:24;;;;;;;;;19.80;17.40;;;;;7.72;100.00;99039.19;6137776;28;96303;-56
2024/03/19 01:52:26;;;;;;;;;19.20;17.20;;;;;7.61;100.00;99021.00;6106443;28;96489;-56
2024/03/19 01:55:29;;;;;;;;;20.00;17.25;;;;;7.71;100.00;99034.88;6140399;28;96555;-56
2024/03/19 01:58:31;;;;;;;;;19.40;16.00;;;;;7.74;100.00;99031.78;6144831;28;96552;-56
2024/03/19 02:01:35;;;;;;;;;20.60;20.20;;;;;7.74;100.00;99045.19;6136973;22;97115;-56
2024/03/19 02:04:39;;;;;;;;;19.00;17.00;;;;;7.73;100.00;99040.84;6123084;28;96740;-56
2024/03/19 02:07:41;;;;;;;;;17.60;16.00;;;;;7.63;100.00;99035.03;6098834;28;96814;-56
2024/03/19 02:10:43;;;;;;;;;17.00;14.50;;;;;7.74;100.00;99049.72;6099296;28;96318;-56
2024/03/19 02:13:45;;;;;;;;;18.00;17.00;;;;;7.76;100.00;99036.94;6099769;28;96263;-57
2024/03/19 02:16:48;;;;;;;;;18.00;16.00;;;;;7.80;100.00;99036.34;6108556;28;96358;-56
2024/03/19 02:19:51;;;;;;;;;18.80;16.80;;;;;7.83;100.00;99040.47;6091735;28;96526;-56
2024/03/19 02:22:54;;;;;;;;;19.00;17.00;;;;;7.82;100.00;99034.28;6074847;28;97137;-56
2024/03/19 02:25:56;;;;;;;;;18.00;16.20;;;;;7.60;100.00;99021.19;6087862;28;96369;-56
2024/03/19 02:28:59;;;;;;;;;21.60;19.00;;;;;7.79;100.00;99037.38;6078509;28;97017;-56
2024/03/19 02:32:01;;;;;;;;;19.00;18.00;;;;;7.82;100.00;99039.66;6074467;28;97198;-56
2024/03/19 02:35:03;;;;;;;;;23.00;21.00;;;;;7.81;100.00;99046.06;6074309;28;96480;-56
2024/03/19 02:38:07;;;;;;;;;20.50;19.00;;;;;7.81;100.00;99046.06;6084087;28;96428;-56
2024/03/19 02:41:09;;;;;;;;;19.20;18.20;;;;;7.86;100.00;99048.16;6093894;28;96827;-57
2024/03/19 02:44:12;;;;;;;;;20.00;19.00;;;;;7.85;100.00;99049.16;6109470;28;98845;-57
2024/03/19 02:47:14;;;;;;;;;17.60;16.60;;;;;7.79;100.00;99053.47;6124974;28;96279;-56
2024/03/19 02:50:16;;;;;;;;;20.50;17.00;;;;;7.65;100.00;99030.28;6124774;28;96311;-57
2024/03/19 02:53:21;;;;;;;;;20.33;19.00;;;;;7.80;100.00;99055.13;6108430;28;98463;-56
2024/03/19 02:56:23;;;;;;;;;20.40;19.60;;;;;7.82;100.00;99053.06;6108351;28;97304;-57
2024/03/19 02:59:25;;;;;;;;;21.80;20.20;;;;;7.80;100.00;99057.00;6087744;28;96271;-57
2024/03/19 03:02:27;;;;;;;;;17.60;16.00;;;;;7.80;100.00;99054.31;6115882;28;96356;-58
2024/03/19 03:05:30;;;;;;;;;19.00;16.00;;;;;7.74;100.00;99063.16;6127294;28;97009;-57
2024/03/19 03:08:33;;;;;;;;;19.00;18.00;;;;;7.72;100.00;99062.53;6073983;28;96586;-58
2024/03/19 03:11:35;;;;;;;;;21.00;19.00;;;;;7.73;100.00;99066.84;6086505;28;96894;-57
2024/03/19 03:14:37;;;;;;;;;21.60;18.60;;;;;7.75;100.00;99062.97;6087186;28;97202;-58
2024/03/19 03:17:39;;;;;;;;;24.67;21.00;;;;;7.70;100.00;99069.94;6123815;28;96334;-57
2024/03/19 03:20:41;;;;;;;;;21.80;19.80;;;;;7.64;100.00;99063.50;6095783;28;96354;-57
2024/03/19 03:23:45;;;;;;;;;22.60;21.00;;;;;7.65;100.00;99064.34;6125620;28;96371;-57
2024/03/19 03:26:47;;;;;;;;;23.80;22.60;;;;;7.67;100.00;99065.00;6125698;28;96772;-57
2024/03/19 03:29:49;;;;;;;;;23.33;20.33;;;;;7.75;100.00;99068.31;6125405;28;96830;-57
2024/03/19 03:32:52;;;;;;;;;21.00;20.00;;;;;7.77;100.00;99077.00;6125376;28;96375;-58
2024/03/19 03:35:54;;;;;;;;;23.40;19.40;;;;;7.75;100.00;99079.06;6109489;28;96127;-57
2024/03/19 03:38:57;;;;;;;;;24.00;20.00;;;;;7.35;100.00;99015.47;6109257;28;97049;-57
2024/03/19 03:41:59;;;;;;;;;20.00;19.00;;;;;7.64;100.00;99076.09;6127239;28;96365;-57
2024/03/19 03:45:01;;;;;;;;;21.60;20.60;;;;;7.70;100.00;99088.72;6121784;28;96291;-57
2024/03/19 03:48:06;;;;;;;;;22.60;20.20;;;;;7.67;100.00;99086.44;6105801;28;96489;-57
2024/03/19 03:51:08;;;;;;;;;20.60;20.00;;;;;7.75;100.00;99097.84;6110309;28;96681;-56
2024/03/19 03:54:12;;;;;;;;;21.00;18.80;;;;;7.79;100.00;99095.59;6088578;28;96399;-56
2024/03/19 03:57:14;;;;;;;;;20.00;18.00;;;;;7.82;100.00;99101.38;6077111;28;96379;-56
2024/03/19 04:00:18;;;;;;;;;23.20;21.60;;;;;7.83;100.00;99089.63;6077482;28;96358;-56
2024/03/19 04:03:20;;;;;;;;;25.40;21.40;;;;;7.84;100.00;99093.13;6077811;28;96909;-56
2024/03/19 04:06:22;;;;;;;;;20.00;18.00;;;;;7.86;100.00;99099.16;6100470;28;97084;-56
2024/03/19 04:09:25;;;;;;;;;19.60;17.60;;;;;7.84;100.00;99104.72;6100896;28;96684;-56
2024/03/19 04:12:27;;;;;;;;;25.60;22.00;;;;;7.79;100.00;99100.97;6086871;28;96111;-56
2024/03/19 04:15:29;;;;;;;;;25.00;22.20;;;;;7.71;100.00;99098.44;6060446;28;98652;-56
2024/03/19 04:18:31;;;;;;;;;27.50;23.00;;;;;7.55;100.00;99088.03;6113891;28;96550;-56
2024/03/19 04:21:33;;;;;;;;;25.00;23.00;;;;;7.68;100.00;99106.88;6091801;28;96886;-56
2024/03/19 04:24:36;;;;;;;;;29.50;25.50;;;;;7.72;100.00;99105.47;6075646;28;96339;-56
2024/03/19 04:27:39;;;;;;;;;27.80;25.40;;;;;7.63;100.00;99112.00;6081192;28;96508;-56
2024/03/19 04:30:41;;;;;;;;;27.60;25.60;;;;;7.52;100.00;99088.44;6074215;28;96733;-56
2024/03/19 04:33:43;;;;;;;;;28.00;21.00;;;;;7.71;100.00;99115.38;6100543;28;96884;-56
2024/03/19 04:36:45;;;;;;;;;29.00;24.00;;;;;7.67;100.00;99121.34;6100319;28;96199;-56
2024/03/19 04:39:48;;;;;;;;;25.60;24.00;;;;;7.67;100.00;99114.09;6096497;28;96367;-56
2024/03/19 04:42:50;;;;;;;;;22.20;20.00;;;;;7.61;100.00;99114.91;6076518;28;96791;-56
2024/03/19 04:45:52;;;;;;;;;27.40;24.40;;;;;7.68;100.00;99120.28;6079687;28;97037;-56
2024/03/19 04:48:54;;;;;;;;;27.20;23.00;;;;;7.66;100.00;99127.72;6099571;28;96626;-56
2024/03/19 04:51:56;;;;;;;;;25.00;23.00;;;;;7.61;100.00;99128.31;6079967;28;96487;-56
2024/03/19 04:55:00;;;;;;;;;25.40;22.80;;;;;7.65;100.00;99134.94;6098875;28;96999;-55
2024/03/19 04:58:02;;;;;;;;;29.00;26.00;;;;;7.65;100.00;99131.44;6092587;28;96944;-55
2024/03/19 05:01:04;;;;;;;;;27.00;25.00;;;;;7.64;100.00;99144.00;6095037;28;97443;-56
2024/03/19 05:04:06;;;;;;;;;27.00;23.50;;;;;7.59;100.00;99126.84;6093175;28;98407;-56
2024/03/19 05:07:08;;;;;;;;;27.40;24.20;;;;;7.74;100.00;99144.50;6094694;28;97089;-57
2024/03/19 05:10:12;;;;;;;;;25.60;23.60;;;;;7.79;100.00;99136.69;6098156;28;96850;-57
2024/03/19 05:13:14;;;;;;;;;26.40;24.00;;;;;7.87;100.00;99145.63;6117287;28;98575;-57
2024/03/19 05:16:16;;;;;;;;;26.80;24.80;;;;;7.85;100.00;99148.47;6115016;28;96281;-57
2024/03/19 05:19:19;;;;;;;;;29.00;25.40;;;;;7.76;100.00;99133.56;6116981;28;97536;-56
2024/03/19 05:22:21;;;;;;;;;27.00;23.00;;;;;7.92;100.00;99159.25;6125417;28;96309;-59
2024/03/19 05:25:25;;;;;;;;;29.60;25.20;;;;;8.01;100.00;99155.41;6122176;28;96287;-57
2024/03/19 05:28:28;;;;;;;;;23.40;22.00;;;;;8.05;100.00;99156.66;6122580;22;99885;-92
2024/03/19 05:31:30;;;;;;;;;25.00;21.00;;;;;6.85;100.00;98987.94;6111676;28;97357;-89
2024/03/19 05:34:33;;;;;;;;;28.00;22.25;;;;;7.30;100.00;99074.25;6118715;28;99100;-91
2024/03/19 05:37:35;;;;;;;;;25.00;22.00;;;;;7.00;100.00;99013.81;6118425;28;96847;-92
2024/03/19 05:40:39;;;;;;;;;24.00;23.00;;;;;7.42;100.00;99043.19;6121070;28;96716;-91
2024/03/19 05:43:41;;;;;;;;;24.75;22.00;;;;;6.41;100.00;98907.03;6118413;28;96839;-91
2024/03/19 05:46:44;;;;;;;;;25.00;24.00;;;;;7.49;100.00;99108.41;6111781;28;96464;-92
2024/03/19 05:49:46;;;;;;;;;25.20;21.20;;;;;6.53;100.00;98918.88;6091342;28;98021;-92
2024/03/19 05:52:49;;;;;;;;;22.80;22.00;;;;;7.25;100.00;99023.06;6087735;28;97426;-91
2024/03/19 05:55:53;;;;;;;;;28.60;24.00;;;;;7.00;100.00;99024.53;6101879;28;96453;-91
2024/03/19 05:58:55;;;;;;;;;25.60;23.60;;;;;8.18;100.00;99195.13;6093703;28;96591;-91
2024/03/19 06:01:58;;;;;;;;;24.00;21.60;;;;;7.04;100.00;99002.50;6104071;28;96996;-92
2024/03/19 06:05:00;;;;;;;;;26.00;24.40;;;;;8.12;100.00;99200.47;6120120;28;96317;-91
2024/03/19 06:08:03;;;;;;;;;26.00;23.75;;;;;8.43;100.00;99197.34;6122585;23;97516;-56
2024/03/19 06:11:08;;;;;;;;;24.00;21.20;;;;;8.46;100.00;99196.94;6139439;28;96346;-57
2024/03/19 06:14:11;;;;;;;;;24.40;22.40;;;;;8.66;100.00;99197.84;6105925;28;96500;-56
2024/03/19 06:17:13;;;;;;;;;24.80;21.40;;;;;8.69;100.00;99200.13;6099081;28;96829;-56
2024/03/19 06:20:17;;;;;;;;;23.60;19.80;;;;;8.74;100.00;99208.44;6090586;28;96435;-56
2024/03/19 06:23:20;;;;;;;;;27.00;23.00;;;;;8.77;100.00;99204.50;6082349;28;96798;-56
2024/03/19 06:26:23;;;;;;;;;24.40;22.00;;;;;8.84;100.00;99210.72;6071007;28;96653;-56
2024/03/19 06:29:26;;;;;;;;;24.80;22.20;;;;;8.81;100.00;99216.50;6078455;28;96800;-56
2024/03/19 06:32:28;;;;;;;;;22.00;19.60;;;;;8.80;100.00;99214.81;6070453;28;96385;-56
2024/03/19 06:35:33;;;;;;;;;21.80;20.00;;;;;8.77;100.00;99218.75;6077228;28;100431;-57
2024/03/19 06:38:35;;;;;;;;;23.00;21.00;;;;;8.82;100.00;99219.00;6060624;28;96947;-57
2024/03/19 06:41:39;;;;;;;;;22.60;20.20;;;;;9.00;100.00;99224.63;6082819;28;96366;-56
2024/03/19 06:44:41;;;;;;;;;20.60;18.00;;;;;9.13;100.00;99221.97;6087336;28;97484;-57
2024/03/19 06:47:45;;;;;;;;;21.00;18.00;;;;;9.19;100.00;99214.91;6089110;28;97575;-56
2024/03/19 06:50:48;;;;;;;;;22.80;20.80;;;;;9.33;100.00;99226.56;6089246;28;96977;-56
2024/03/19 06:53:50;;;;;;;;;19.50;18.00;;;;;9.40;100.00;99230.91;6087481;28;96342;-57
2024/03/19 06:56:54;;;;;;;;;20.00;18.80;;;;;9.82;100.00;99228.84;6049768;28;96545;-56
2024/03/19 06:59:57;;;;;;;;;19.75;16.50;;;;;11.34;100.00;99219.13;6049363;28;96375;-58
2024/03/19 07:02:59;;;;;;;;;19.00;18.00;;;;;14.05;100.00;99234.56;6049459;28;97037;-57
2024/03/19 07:06:02;;;;;;;;;21.00;18.00;;;;;16.91;99.88;99234.84;6065598;28;96440;-58
2024/03/19 07:09:04;;;;;;;;;14.50;14.00;;;;;18.67;84.99;99240.22;6065426;28;96704;-57
2024/03/19 07:12:08;;;;;;;;;18.00;16.60;;;;;19.95;75.54;99241.06;6065639;28;96332;-58
2024/03/19 07:15:14;;;;;;;;;18.80;16.80;;;;;20.84;67.02;99247.78;6065403;28;96378;-57
2024/03/19 07:18:16;;;;;;;;;18.20;16.20;;;;;22.13;63.19;99248.41;6066041;28;96865;-57
2024/03/19 07:21:18;;;;;;;;;20.00;18.00;;;;;24.36;55.44;99241.59;6065376;28;96352;-57
2024/03/19 07:24:21;;;;;;;;;19.50;17.50;;;;;26.79;47.48;99254.53;6065201;28;96380;-57
2024/03/19 07:27:25;;;;;;;;;16.00;15.00;;;;;27.96;43.69;99236.88;6065436;28;96431;-57
2024/03/19 07:30:27;;;;;;;;;16.00;14.00;;;;;27.23;40.42;99270.19;6065170;28;96406;-57
2024/03/19 07:33:29;;;;;;;;;16.00;12.20;;;;;26.60;41.13;99265.84;6065475;28;97552;-57
2024/03/19 07:36:32;;;;;;;;;16.00;14.00;;;;;27.61;39.45;99270.47;6065782;28;97186;-57
2024/03/19 07:39:34;;;;;;;;;17.50;16.25;;;;;28.77;36.54;99275.75;6048880;28;96760;-57
2024/03/19 07:42:38;;;;;;;;;16.00;15.00;;;;;29.74;34.09;99269.31;6067012;28;96845;-57
2024/03/19 07:45:41;;;;;;;;;14.75;13.75;;;;;30.09;32.30;99277.06;6075551;28;96301;-57
2024/03/19 07:48:43;;;;;;;;;15.50;14.00;;;;;28.16;34.69;99279.75;6085402;28;96235;-57
2024/03/19 07:51:46;;;;;;;;;16.00;15.00;;;;;25.84;37.80;99276.06;6065137;28;97024;-57
2024/03/19 07:54:48;;;;;;;;;15.80;14.60;;;;;23.43;41.87;99278.28;6065115;28;96314;-57
2024/03/19 07:57:52;;;;;;;;;17.00;14.40;;;;;21.92;46.89;99286.16;6065142;28;96263;-57
2024/03/19 08:00:54;;;;;;;;;16.20;14.00;;;;;24.30;45.47;99281.38;6067659;28;96388;-57
2024/03/19 08:03:56;;;;;;;;;14.20;12.20;;;;;28.01;38.21;99281.06;6090838;28;96569;-57
2024/03/19 08:06:58;;;;;;;;;14.00;13.60;;;;;31.01;32.55;99293.44;6093145;28;96284;-57
2024/03/19 08:10:01;;;;;;;;;16.00;14.50;;;;;33.55;28.48;99270.41;6096379;28;96539;-57
2024/03/19 08:13:05;;;;;;;;;14.40;13.40;;;;;34.82;25.38;99277.84;6079842;28;96391;-57
2024/03/19 08:16:07;;;;;;;;;13.00;12.00;;;;;35.50;25.44;99287.00;6096318;28;96709;-57
2024/03/19 08:19:10;;;;;;;;;13.00;13.00;;;;;36.92;24.91;99282.34;6096246;28;96829;-57
2024/03/19 08:22:12;;;;;;;;;12.40;12.00;;;;;38.71;23.60;99281.78;6096064;28;96400;-57
2024/03/19 08:25:14;;;;;;;;;13.00;11.40;;;;;39.73;21.76;99277.34;6071428;28;97002;-57
2024/03/19 08:28:18;;;;;;;;;13.00;12.00;;;;;40.93;21.72;99265.44;6075540;28;96350;-57
2024/03/19 08:31:20;;;;;;;;;9.00;8.60;;;;;41.56;20.33;99271.78;6076699;28;96251;-57
2024/03/19 08:34:22;;;;;;;;;10.50;9.00;;;;;42.51;20.24;99267.00;6083562;28;96813;-55
2024/03/19 08:37:24;;;;;;;;;11.00;10.50;;;;;43.09;19.76;99259.22;6083952;28;96293;-55
2024/03/19 08:40:27;;;;;;;;;10.75;9.75;;;;;43.48;19.23;99265.03;6082580;28;96414;-55
2024/03/19 08:43:30;;;;;;;;;9.80;8.80;;;;;43.52;18.75;99262.94;6079267;28;96494;-56
2024/03/19 08:46:33;;;;;;;;;10.00;9.00;;;;;43.81;17.45;99251.78;6080022;28;97814;-54
2024/03/19 08:49:35;;;;;;;;;9.60;8.60;;;;;44.87;18.04;99257.19;6079366;28;98165;-55
2024/03/19 08:52:38;;;;;;;;;8.80;7.80;;;;;45.12;16.84;99257.38;6079848;28;97073;-55
2024/03/19 08:55:42;;;;;;;;;8.00;8.00;;;;;45.49;17.21;99252.38;6080899;28;96274;-56
2024/03/19 08:58:46;;;;;;;;;9.00;8.00;;;;;45.43;16.40;99254.16;6083735;28;96753;-55
2024/03/19 09:01:48;;;;;;;;;9.00;8.00;;;;;43.75;16.81;99235.69;6084631;28;96502;-55
2024/03/19 09:04:50;;;;;;;;;8.75;8.00;;;;;41.48;18.49;99250.44;6083178;28;96286;-54
2024/03/19 09:07:52;;;;;;;;;9.00;8.60;;;;;41.82;18.18;99239.94;6082526;28;96910;-55
2024/03/19 09:10:55;;;;;;;;;8.40;8.00;;;;;43.15;17.73;99257.50;6098143;28;96595;-55
2024/03/19 09:13:59;;;;;;;;;8.40;8.00;;;;;43.78;17.73;99249.84;6081714;28;96311;-55
2024/03/19 09:17:01;;;;;;;;;6.00;6.00;;;;;44.61;16.33;99261.06;6082665;28;96259;-54
2024/03/19 09:20:05;;;;;;;;;7.00;7.00;;;;;44.55;16.93;99260.78;6083457;28;96871;-54
2024/03/19 09:23:07;;;;;;;;;8.40;8.40;;;;;41.59;17.64;99251.13;6082213;28;96295;-55
2024/03/19 09:26:09;;;;;;;;;10.20;10.00;;;;;38.37;19.60;99246.66;6083028;28;96669;-54
2024/03/19 09:29:13;;;;;;;;;8.00;7.60;;;;;35.32;20.11;99245.88;6084749;28;96196;-54
2024/03/19 09:32:15;;;;;;;;;9.00;9.00;;;;;33.62;21.56;99251.81;6083963;28;96284;-54
2024/03/19 09:35:17;;;;;;;;;9.20;8.80;;;;;31.35;22.80;99264.31;6083872;28;96972;-54
2024/03/19 09:38:20;;;;;;;;;11.75;9.00;;;;;28.79;24.56;99254.00;6083859;28;96258;-53
2024/03/19 09:41:24;;;;;;;;;8.80;8.00;;;;;26.72;27.13;99253.09;6085954;28;96547;-53
2024/03/19 09:44:28;;;;;;;;;9.00;9.00;;;;;27.08;27.98;99257.59;6076193;28;96715;-57
2024/03/19 09:47:30;;;;;;;;;9.75;8.00;;;;;30.07;25.06;99251.56;6075583;28;97568;-57
2024/03/19 09:50:34;;;;;;;;;5.40;5.00;;;;;33.19;22.66;99254.78;6075454;28;96239;-58
2024/03/19 09:53:37;;;;;;;;;8.00;7.00;;;;;35.26;21.41;99265.00;6075323;28;97055;-59
2024/03/19 09:56:39;;;;;;;;;5.50;5.50;;;;;35.01;21.18;99272.97;6075150;28;96280;-58
2024/03/19 09:59:45;;;;;;;;;7.00;7.00;;;;;34.13;21.25;99263.69;6075200;28;96325;-58
2024/03/19 10:02:48;;;;;;;;;7.00;7.00;;;;;35.77;21.10;99265.38;6074982;28;96243;-58
2024/03/19 10:05:50;;;;;;;;;6.00;5.50;;;;;38.26;19.47;99257.13;6076201;28;96321;-58
2024/03/19 10:08:52;;;;;;;;;7.60;7.00;;;;;40.45;18.70;99268.19;6089818;28;96296;-58
2024/03/19 10:11:55;;;;;;;;;4.50;4.50;;;;;41.38;17.03;99259.81;6074824;28;96538;-58
2024/03/19 10:14:59;;;;;;;;;8.00;8.00;;;;;42.75;17.39;99260.16;6078660;28;96272;-59
2024/03/19 10:18:01;;;;;;;;;6.00;6.00;;;;;43.76;16.83;99257.19;6098397;28;96504;-59
2024/03/19 10:21:06;;;;;;;;;7.00;7.00;;;;;44.03;16.70;99264.38;6098326;28;97635;-58
2024/03/19 10:24:13;;;;;;;;;6.00;5.00;;;;;44.91;16.73;99257.91;6098293;28;96292;-59
2024/03/19 10:27:17;;;;;;;;;6.00;5.25;;;;;45.88;16.58;99252.09;6099011;28;96346;-59
2024/03/19 10:30:22;;;;;;;;;7.00;6.00;;;;;43.89;16.08;99261.03;6098362;28;96326;-58
2024/03/19 10:33:25;;;;;;;;;6.00;6.00;;;;;39.92;17.34;99268.44;6098527;28;96800;-58
2024/03/19 10:36:34;;;;;;;;;6.50;6.00;;;;;35.89;18.37;99253.09;6097035;28;96905;-57
2024/03/19 10:39:38;;;;;;;;;8.40;6.00;;;;;32.90;20.25;99267.22;6098705;28;96328;-57
2024/03/19 10:42:41;;;;;;;;;6.00;6.00;;;;;31.58;21.64;99265.47;6098118;28;96350;-57
2024/03/19 10:45:48;;;;;;;;;5.20;5.00;;;;;33.48;20.83;99254.25;6098013;28;96418;-57
2024/03/19 10:48:50;;;;;;;;;7.00;6.00;;;;;35.91;19.19;99250.72;6097187;28;96366;-58
2024/03/19 10:51:58;;;;;;;;;5.60;5.00;;;;;38.24;19.32;99262.31;6097866;28;96548;-58
2024/03/19 10:55:00;;;;;;;;;7.00;6.00;;;;;40.25;18.01;99258.63;6098107;28;96314;-59
2024/03/19 10:58:03;;;;;;;;;6.00;6.00;;;;;41.71;16.95;99252.63;6097253;28;96926;-58
2024/03/19 11:01:08;;;;;;;;;7.00;6.00;;;;;42.82;16.39;99255.59;6098517;28;96474;-58
2024/03/19 11:04:11;;;;;;;;;5.00;5.00;;;;;43.64;16.48;99255.81;6098170;28;96255;-58
2024/03/19 11:07:23;;;;;;;;;6.00;5.00;;;;;43.88;15.96;99256.56;6097878;28;96491;-59
2024/03/19 11:10:30;;;;;;;;;5.40;5.00;;;;;43.93;16.14;99261.75;6097199;28;96519;-59
2024/03/19 11:13:36;;;;;;;;;5.20;5.20;;;;;44.06;15.73;99253.34;6097713;28;96254;-59
2024/03/19 11:16:40;;;;;;;;;5.50;5.00;;;;;44.28;15.89;99257.38;6097390;28;96332;-59
2024/03/19 11:19:42;;;;;;;;;7.00;6.00;;;;;43.89;15.37;99250.44;6097464;28;96831;-59
2024/03/19 11:22:47;;;;;;;;;5.60;5.00;;;;;43.24;16.76;99249.25;6097451;28;96383;-59
2024/03/19 11:25:50;;;;;;;;;6.00;6.00;;;;;40.67;18.28;99249.88;6097595;28;96319;-59
2024/03/19 11:29:02;;;;;;;;;6.60;6.00;;;;;39.15;18.07;99250.41;6097305;28;96410;-59
2024/03/19 11:32:06;;;;;;;;;7.00;6.00;;;;;37.89;18.54;99241.25;6091561;28;96558;-59
2024/03/19 11:35:18;;;;;;;;;4.00;3.00;;;;;38.05;18.04;99243.75;6096795;28;96536;-59
2024/03/19 11:38:20;;;;;;;;;6.40;6.40;;;;;39.04;17.71;99241.16;6097803;28;96356;-58
2024/03/19 11:41:23;;;;;;;;;6.00;6.00;;;;;39.62;17.24;99245.50;6086402;28;96772;-59
2024/03/19 11:44:26;;;;;;;;;7.00;6.00;;;;;40.22;17.18;99245.34;6097469;28;96582;-59
2024/03/19 11:47:29;;;;;;;;;6.00;5.40;;;;;40.84;16.95;99236.84;6097153;28;96519;-58
2024/03/19 11:50:32;;;;;;;;;5.25;5.00;;;;;40.95;16.52;99236.75;6096939;28;96273;-58
2024/03/19 11:53:34;;;;;;;;;6.00;5.00;;;;;40.74;16.50;99242.59;6097087;28;96323;-58
2024/03/19 11:56:39;;;;;;;;;6.00;6.00;;;;;39.86;17.12;99239.00;6096649;28;96475;-58
2024/03/19 11:59:41;;;;;;;;;6.00;5.40;;;;;37.71;17.92;99229.13;6096745;28;97843;-59
2024/03/19 12:02:45;;;;;;;;;6.00;5.00;;;;;35.01;18.84;99239.34;6102173;28;97039;-55
2024/03/19 12:05:49;;;;;;;;;6.25;6.25;;;;;34.64;19.86;99232.69;6108423;28;96374;-55
2024/03/19 12:08:51;;;;;;;;;9.00;6.00;;;;;35.15;19.34;99233.97;6097543;28;96911;-54
2024/03/19 12:11:53;;;;;;;;;7.00;6.00;;;;;35.55;18.80;99232.56;6094516;28;96323;-54
2024/03/19 12:14:55;;;;;;;;;7.00;7.00;;;;;35.85;18.93;99225.00;6097572;28;96355;-54
2024/03/19 12:18:01;;;;;;;;;7.00;6.25;;;;;35.41;19.52;99215.56;6100328;28;96341;-54
2024/03/19 12:21:04;;;;;;;;;6.80;6.20;;;;;34.68;20.07;99220.41;6100772;28;96260;-54
2024/03/19 12:24:09;;;;;;;;;7.00;7.00;;;;;33.58;20.36;99216.53;6096015;28;96389;-54
2024/03/19 12:27:12;;;;;;;;;7.00;7.00;;;;;32.28;21.23;99218.50;6092473;28;96327;-55
2024/03/19 12:30:16;;;;;;;;;7.00;6.75;;;;;31.27;21.90;99213.16;6095435;28;96303;-54
2024/03/19 12:33:27;;;;;;;;;6.40;6.00;;;;;30.32;22.78;99215.47;6099513;28;96298;-55
2024/03/19 12:36:29;;;;;;;;;6.40;6.40;;;;;29.41;23.54;99216.47;6098642;28;96988;-54
2024/03/19 12:39:32;;;;;;;;;8.00;8.00;;;;;28.34;24.14;99220.38;6097771;28;96492;-54
2024/03/19 12:42:34;;;;;;;;;8.00;7.00;;;;;27.33;24.78;99207.03;6097973;28;96286;-55
2024/03/19 12:45:36;;;;;;;;;8.00;8.00;;;;;26.34;26.70;99221.47;6097550;28;96466;-55
2024/03/19 12:48:40;;;;;;;;;8.60;7.00;;;;;25.57;26.86;99212.63;6098739;28;96604;-55
2024/03/19 12:51:42;;;;;;;;;8.00;7.80;;;;;25.06;28.27;99211.00;6091341;28;96276;-55
2024/03/19 12:54:45;;;;;;;;;7.00;6.20;;;;;24.63;29.21;99215.19;6087081;28;96341;-54
2024/03/19 12:57:47;;;;;;;;;7.00;7.00;;;;;23.78;29.25;99212.81;6090471;28;96590;-54
2024/03/19 13:00:49;;;;;;;;;6.00;6.00;;;;;23.37;30.02;99215.34;6083718;28;96352;-54
2024/03/19 13:03:53;;;;;;;;;8.60;7.60;;;;;22.84;31.03;99218.25;6091951;28;96362;-53
2024/03/19 13:06:56;;;;;;;;;6.50;6.00;;;;;22.26;32.15;99203.78;6094155;28;96271;-53
2024/03/19 13:09:58;;;;;;;;;8.00;6.60;;;;;21.88;33.16;99211.78;6089701;28;96825;-53
2024/03/19 13:13:00;;;;;;;;;6.00;6.00;;;;;21.71;34.48;99214.13;6086555;28;96380;-53
2024/03/19 13:16:03;;;;;;;;;8.40;7.40;;;;;21.58;36.59;99207.38;6099102;28;96356;-53
2024/03/19 13:19:06;;;;;;;;;8.00;7.20;;;;;21.54;35.46;99202.75;6098946;28;96411;-53
2024/03/19 13:22:09;;;;;;;;;8.00;8.00;;;;;21.60;37.13;99207.88;6105676;28;96945;-54
2024/03/19 13:25:11;;;;;;;;;7.60;7.00;;;;;21.50;34.56;99196.97;6105072;28;96911;-54
2024/03/19 13:28:13;;;;;;;;;8.00;8.00;;;;;21.21;35.02;99209.78;6111861;28;96367;-54
2024/03/19 13:31:15;;;;;;;;;8.40;7.00;;;;;20.91;36.11;99202.53;6115765;28;97592;-53
2024/03/19 13:34:20;;;;;;;;;9.00;8.50;;;;;20.77;35.74;99207.78;6092270;28;96774;-53
2024/03/19 13:37:22;;;;;;;;;8.60;8.40;;;;;20.55;35.87;99201.84;6105063;28;96810;-53
2024/03/19 13:40:25;;;;;;;;;7.60;7.00;;;;;20.58;37.26;99198.53;6106257;28;96446;-53
2024/03/19 13:43:27;;;;;;;;;7.60;7.40;;;;;20.33;37.56;99200.56;6106917;28;96506;-53
2024/03/19 13:46:29;;;;;;;;;6.00;6.00;;;;;20.34;38.35;99200.25;6105414;28;97247;-53
2024/03/19 13:49:33;;;;;;;;;5.20;5.20;;;;;20.47;40.09;99194.22;6106322;28;96964;-53
2024/03/19 13:52:37;;;;;;;;;8.00;7.00;;;;;20.17;37.21;99189.59;6108871;28;96294;-53
2024/03/19 13:55:42;;;;;;;;;7.00;6.60;;;;;20.19;38.13;99189.31;6082592;28;96342;-54
2024/03/19 13:58:44;;;;;;;;;7.00;6.00;;;;;20.13;39.46;99195.91;6082905;28;96311;-54
2024/03/19 14:01:49;;;;;;;;;6.00;5.00;;;;;20.09;40.67;99189.31;6108669;28;96432;-54
2024/03/19 14:04:55;;;;;;;;;6.00;5.40;;;;;20.24;39.74;99198.34;6120531;28;96248;-53
2024/03/19 14:07:57;;;;;;;;;7.00;6.60;;;;;20.17;38.19;99197.81;6094480;28;96711;-53
2024/03/19 14:10:59;;;;;;;;;6.00;5.00;;;;;19.86;38.57;99202.50;6095207;28;96886;-53